الصفحة الرئيسية
METAR-TAF:

METAR-TAF

مطار :

Safford, أريزونا, الولايات المتحدة

دائرة عرض: 32-51-26N, خط طول: 109-38-08W, ارتفاع: 968 متر

مراقبة الطقس الحالي

تاريخ ووقت الإصدار 36 دقيقة قبل الساعة 05:51UTC
ريح 9 عقدة من الجنوب الشرقي
درجة الحرارة 11°درجة مئوية
الرطوبة 43%
ضغط 1023 hPa
الرؤية: 16.1 كم
سماء صافية

METAR: KSAD 110551Z AUTO 13009KT 10SM CLR 11/M01 A3022 RMK AO2 SLP215 T01061011 10144 20089 53007

زمن: 23:27 (06:27 UTC)


TAF: مفقودة

أرصاد الطقس والتوقعات من أكثر من 4000 مطار (تقارير الطقس للمطار METAR والتنبؤ بالطقس بالمطارTAF).

المحطات المتاحة هي النقط الصفراء والحمراء على الخريطة.

حرك المؤشر فوق النقطة لمعرفة اسم المحطة.

ثم انقر لمعرفة أرصاد وتوقعات الطقس.

لتغيير الخارطة: اضغط على الأزرار الخضراء مع رمز الصليب الأسود للتكبير. على الزر الأخضر مع شرطة للتصغير، أو على الأسهم الخضراء للخرائط المجاورة.


METAR-TAF: